createdAt,value
2023-01-13T00:01:12.788Z,0.95
2023-01-13T00:03:39.935Z,0.80
2023-01-13T00:06:07.399Z,1.60
2023-01-13T00:08:36.099Z,0.93
2023-01-13T00:11:03.242Z,1.10
2023-01-13T00:13:31.978Z,0.60
2023-01-13T00:16:04.139Z,1.40
2023-01-13T00:18:31.494Z,1.25
2023-01-13T00:21:00.441Z,1.45
2023-01-13T00:23:28.507Z,1.30
2023-01-13T00:25:59.945Z,1.20
2023-01-13T00:28:27.317Z,0.68
2023-01-13T00:30:56.529Z,2.13
2023-01-13T00:33:23.695Z,1.10
2023-01-13T00:36:00.375Z,0.57
2023-01-13T00:38:27.710Z,1.10
2023-01-13T00:40:58.356Z,1.27
2023-01-13T00:43:26.937Z,1.15
2023-01-13T00:45:54.580Z,1.08
2023-01-13T00:48:22.685Z,1.08
2023-01-13T00:51:06.447Z,1.85
2023-01-13T00:53:35.003Z,1.15
2023-01-13T00:56:06.431Z,2.95
2023-01-13T00:58:34.328Z,5.57
2023-01-13T01:01:06.331Z,2.78
2023-01-13T01:03:33.882Z,4.15
2023-01-13T01:06:13.442Z,2.40
2023-01-13T01:08:40.660Z,1.48
2023-01-13T01:11:13.136Z,1.60
2023-01-13T01:13:41.394Z,2.40
2023-01-13T01:16:14.063Z,1.10
2023-01-13T01:18:43.561Z,0.90
2023-01-13T01:21:10.815Z,0.80
2023-01-13T01:23:38.091Z,0.70
2023-01-13T01:26:10.849Z,1.10
2023-01-13T01:28:37.999Z,0.50
2023-01-13T01:31:32.073Z,0.85
2023-01-13T01:33:59.684Z,1.30
2023-01-13T01:36:27.074Z,1.52
2023-01-13T01:38:58.857Z,0.70
2023-01-13T01:41:28.371Z,0.93
2023-01-13T01:44:08.389Z,0.80
2023-01-13T01:46:39.302Z,0.77
2023-01-13T01:49:23.198Z,0.63
2023-01-13T01:52:21.058Z,0.63
2023-01-13T01:54:58.691Z,0.43
2023-01-13T01:57:49.473Z,0.77
2023-01-13T02:00:16.953Z,0.95
2023-01-13T02:02:45.358Z,0.70
2023-01-13T02:05:12.639Z,0.73
2023-01-13T02:07:40.664Z,0.85
2023-01-13T02:10:09.759Z,0.63
2023-01-13T02:12:36.956Z,0.82
2023-01-13T02:15:03.998Z,0.55
2023-01-13T02:17:35.706Z,0.73
2023-01-13T02:20:34.320Z,0.65
2023-01-13T02:23:01.331Z,0.68
2023-01-13T02:25:37.508Z,0.75
2023-01-13T02:28:16.833Z,0.70
2023-01-13T02:31:18.616Z,0.80
2023-01-13T02:34:31.198Z,0.90
2023-01-13T02:37:21.043Z,0.70
2023-01-13T02:39:54.467Z,0.77
2023-01-13T02:42:49.798Z,0.80
2023-01-13T02:45:24.747Z,0.60
2023-01-13T02:47:53.270Z,0.90
2023-01-13T02:50:21.047Z,0.75
2023-01-13T02:52:51.442Z,0.65
2023-01-13T02:55:22.421Z,0.90
2023-01-13T02:57:49.579Z,0.50
2023-01-13T03:00:17.020Z,0.70
2023-01-13T03:02:44.051Z,0.55
2023-01-13T03:05:15.835Z,0.95
2023-01-13T03:07:57.469Z,0.63
2023-01-13T03:10:49.152Z,0.43
2023-01-13T03:13:16.067Z,0.55
2023-01-13T03:16:02.836Z,0.70
2023-01-13T03:18:35.796Z,0.43
2023-01-13T03:21:27.379Z,0.25
2023-01-13T03:24:04.673Z,0.63
2023-01-13T03:26:46.832Z,0.68
2023-01-13T03:29:22.841Z,0.50
2023-01-13T03:32:03.459Z,0.50
2023-01-13T03:34:33.199Z,0.82
2023-01-13T03:37:02.241Z,0.55
2023-01-13T03:39:31.354Z,1.00
2023-01-13T03:42:01.611Z,0.60
2023-01-13T03:44:33.950Z,0.70
2023-01-13T03:47:49.330Z,0.60
2023-01-13T03:50:24.539Z,0.60
2023-01-13T03:52:55.182Z,0.85
2023-01-13T03:55:23.517Z,0.40
2023-01-13T03:58:26.615Z,0.60
2023-01-13T04:01:04.361Z,0.52
2023-01-13T04:04:09.764Z,0.65
2023-01-13T04:07:00.582Z,0.73
2023-01-13T04:09:34.626Z,0.32
2023-01-13T04:12:51.242Z,0.38
2023-01-13T04:15:19.218Z,0.60
2023-01-13T04:17:46.200Z,0.40
2023-01-13T04:20:13.549Z,0.82
2023-01-13T04:22:40.485Z,0.50
2023-01-13T04:25:08.132Z,0.30
2023-01-13T04:27:35.339Z,0.43
2023-01-13T04:30:02.281Z,0.55
2023-01-13T04:32:29.260Z,0.68
2023-01-13T04:34:56.191Z,0.70
2023-01-13T04:37:23.116Z,0.82
2023-01-13T04:39:50.060Z,0.50
2023-01-13T04:42:16.953Z,0.65
2023-01-13T04:44:43.915Z,0.60
2023-01-13T04:47:10.798Z,0.68
2023-01-13T04:49:37.746Z,0.65
2023-01-13T04:52:07.127Z,0.50
2023-01-13T04:54:34.073Z,0.77
2023-01-13T04:57:01.038Z,0.70
2023-01-13T04:59:27.929Z,0.70
2023-01-13T05:01:54.943Z,0.50
2023-01-13T05:04:21.926Z,0.82
2023-01-13T05:06:48.913Z,0.30
2023-01-13T05:09:15.873Z,0.38
2023-01-13T05:12:01.587Z,0.57
2023-01-13T05:14:46.943Z,0.60
2023-01-13T05:17:18.994Z,0.65
2023-01-13T05:19:45.992Z,0.60
2023-01-13T05:22:31.834Z,0.60
2023-01-13T05:25:17.696Z,0.80
2023-01-13T05:27:44.702Z,0.68
2023-01-13T05:30:12.057Z,0.73
2023-01-13T05:32:39.032Z,0.52
2023-01-13T05:35:06.041Z,0.47
2023-01-13T05:37:33.099Z,0.75
2023-01-13T05:40:18.553Z,0.85
2023-01-13T05:43:04.276Z,0.80
2023-01-13T05:45:31.631Z,0.75
2023-01-13T05:47:58.636Z,0.65
2023-01-13T05:50:25.556Z,0.57
2023-01-13T05:52:52.561Z,0.60
2023-01-13T05:55:19.448Z,0.52
2023-01-13T05:57:46.442Z,0.90
2023-01-13T06:00:14.674Z,0.65
2023-01-13T06:02:41.700Z,0.65
2023-01-13T06:05:08.978Z,0.75
2023-01-13T06:07:35.926Z,0.45
2023-01-13T06:10:02.870Z,0.80
2023-01-13T06:12:29.859Z,0.68
2023-01-13T06:14:56.772Z,1.00
2023-01-13T06:17:23.754Z,0.80
2023-01-13T06:19:51.195Z,0.80
2023-01-13T06:22:26.847Z,0.90
2023-01-13T06:24:54.137Z,0.80
2023-01-13T06:27:21.549Z,0.95
2023-01-13T06:29:48.599Z,0.70
2023-01-13T06:32:16.886Z,0.60
2023-01-13T06:34:45.434Z,0.60
2023-01-13T06:37:13.025Z,1.33
2023-01-13T06:39:40.693Z,0.63
2023-01-13T06:42:26.195Z,0.80
2023-01-13T06:44:53.282Z,0.75
2023-01-13T06:47:22.382Z,0.70
2023-01-13T06:49:49.424Z,0.60
2023-01-13T06:52:16.433Z,0.50
2023-01-13T06:54:43.416Z,0.80
2023-01-13T06:57:10.352Z,0.70
2023-01-13T06:59:37.359Z,0.80
2023-01-13T07:02:04.348Z,0.63
2023-01-13T07:04:31.610Z,1.05
2023-01-13T07:06:59.765Z,0.30
2023-01-13T07:09:26.775Z,0.88
2023-01-13T07:11:53.983Z,0.80
2023-01-13T07:14:39.791Z,0.80
2023-01-13T07:17:06.792Z,0.60
2023-01-13T07:19:33.688Z,0.80
2023-01-13T07:22:00.656Z,0.60
2023-01-13T07:24:27.875Z,0.40
2023-01-13T07:26:54.873Z,0.63
2023-01-13T07:29:21.905Z,0.50
2023-01-13T07:31:50.127Z,0.60
2023-01-13T07:34:17.603Z,0.50
2023-01-13T07:36:44.598Z,0.57
2023-01-13T07:39:11.510Z,0.85
2023-01-13T07:41:57.063Z,1.00
2023-01-13T07:44:24.057Z,0.93
2023-01-13T07:46:50.959Z,0.55
2023-01-13T07:49:17.999Z,0.50
2023-01-13T07:51:44.971Z,0.55
2023-01-13T07:54:13.033Z,0.60
2023-01-13T07:56:39.984Z,0.60
2023-01-13T07:59:06.930Z,0.50
2023-01-13T08:01:34.034Z,0.52
2023-01-13T08:04:01.021Z,0.60
2023-01-13T08:06:28.133Z,0.60
2023-01-13T08:08:55.061Z,0.60
2023-01-13T08:11:23.583Z,0.50
2023-01-13T08:13:50.764Z,0.50
2023-01-13T08:16:17.784Z,0.57
2023-01-13T08:18:44.983Z,0.60
2023-01-13T08:21:13.372Z,0.40
2023-01-13T08:23:44.275Z,0.73
2023-01-13T08:26:17.263Z,0.40
2023-01-13T08:28:44.862Z,0.43
2023-01-13T08:31:13.468Z,0.52
2023-01-13T08:33:40.707Z,0.40
2023-01-13T08:36:09.179Z,0.73
2023-01-13T08:38:36.340Z,0.77
2023-01-13T08:41:15.295Z,0.52
2023-01-13T08:43:42.304Z,0.47
2023-01-13T08:46:09.386Z,0.88
2023-01-13T08:48:37.172Z,0.80
2023-01-13T08:51:08.126Z,0.60
2023-01-13T08:53:35.230Z,0.63
2023-01-13T08:56:02.201Z,0.55
2023-01-13T08:58:29.496Z,0.45
2023-01-13T09:00:56.562Z,0.40
2023-01-13T09:03:23.617Z,0.35
2023-01-13T09:05:50.573Z,0.30
2023-01-13T09:08:17.487Z,0.40
2023-01-13T09:10:44.750Z,0.40
2023-01-13T09:13:13.196Z,0.60
2023-01-13T09:15:45.207Z,0.32
2023-01-13T09:18:12.571Z,0.60
2023-01-13T09:20:39.550Z,0.60
2023-01-13T09:23:09.705Z,0.68
2023-01-13T09:25:37.174Z,0.45
2023-01-13T09:28:08.722Z,0.70
2023-01-13T09:30:37.026Z,0.80
2023-01-13T09:33:22.664Z,0.40
2023-01-13T09:35:49.696Z,0.60
2023-01-13T09:38:16.770Z,0.35
2023-01-13T09:40:44.077Z,0.52
2023-01-13T09:43:44.825Z,0.40
2023-01-13T09:46:39.571Z,0.50
2023-01-13T09:49:09.540Z,0.50
2023-01-13T09:51:39.904Z,0.45
2023-01-13T09:54:12.448Z,1.38
2023-01-13T09:56:39.387Z,0.57
2023-01-13T09:59:11.262Z,0.25
2023-01-13T10:01:59.508Z,0.50
2023-01-13T10:04:26.548Z,0.40
2023-01-13T10:06:56.426Z,0.70
2023-01-13T10:09:33.319Z,0.60
2023-01-13T10:12:18.788Z,0.68
2023-01-13T10:14:53.472Z,0.60
2023-01-13T10:17:36.688Z,0.73
2023-01-13T10:20:21.313Z,0.50
2023-01-13T10:23:01.917Z,0.50
2023-01-13T10:25:46.202Z,0.45
2023-01-13T10:28:16.606Z,0.47
2023-01-13T10:30:46.500Z,0.85
2023-01-13T10:33:20.867Z,0.40
2023-01-13T10:36:01.326Z,0.60
2023-01-13T10:38:41.540Z,0.60
2023-01-13T10:41:20.553Z,0.63
2023-01-13T10:44:16.056Z,0.60
2023-01-13T10:46:54.062Z,0.60
2023-01-13T10:49:38.628Z,0.50
2023-01-13T10:52:26.461Z,0.40
2023-01-13T10:54:53.939Z,0.70
2023-01-13T10:57:23.065Z,0.47
2023-01-13T10:59:51.131Z,0.65
2023-01-13T11:02:27.181Z,0.63
2023-01-13T11:04:54.295Z,0.30
2023-01-13T11:07:26.828Z,0.50
2023-01-13T11:10:05.943Z,0.90
2023-01-13T11:12:54.611Z,0.40
2023-01-13T11:15:23.825Z,0.60
2023-01-13T11:18:32.371Z,0.60
2023-01-13T11:23:37.237Z,0.50
2023-01-13T11:26:06.996Z,0.60
2023-01-13T11:28:36.046Z,0.90
2023-01-13T11:31:17.633Z,0.50
2023-01-13T11:33:48.764Z,0.60
2023-01-13T11:38:50.766Z,0.70
2023-01-13T11:41:41.032Z,0.60
2023-01-13T11:44:18.581Z,0.88
2023-01-13T11:46:46.186Z,0.52
2023-01-13T11:49:26.795Z,0.70
2023-01-13T11:52:32.861Z,0.70
2023-01-13T11:55:02.430Z,0.70
2023-01-13T11:58:08.561Z,0.57
2023-01-13T12:01:10.890Z,0.60
2023-01-13T12:03:48.634Z,0.50
2023-01-13T12:06:24.279Z,0.50
2023-01-13T12:09:09.941Z,0.50
2023-01-13T12:12:19.936Z,0.43
2023-01-13T12:15:14.930Z,0.30
2023-01-13T12:17:54.201Z,0.20
2023-01-13T12:20:45.736Z,0.80
2023-01-13T12:23:57.130Z,0.98
2023-01-13T12:26:24.244Z,2.20
2023-01-13T12:29:19.105Z,0.90
2023-01-13T12:31:49.185Z,2.05
2023-01-13T12:34:50.024Z,1.23
2023-01-13T12:37:23.444Z,1.05
2023-01-13T12:40:02.762Z,1.30
2023-01-13T12:43:07.565Z,0.68
2023-01-13T12:45:34.562Z,0.85
2023-01-13T12:48:01.752Z,1.00
2023-01-13T12:50:29.283Z,0.60
2023-01-13T12:52:57.441Z,1.17
2023-01-13T12:55:25.587Z,1.67
2023-01-13T12:58:04.618Z,1.75
2023-01-13T13:00:56.989Z,1.88
2023-01-13T13:03:34.201Z,3.67
2023-01-13T13:06:07.410Z,1.77
2023-01-13T13:09:03.332Z,3.42
2023-01-13T13:11:58.103Z,2.72
2023-01-13T13:14:37.381Z,2.20
2023-01-13T13:17:05.375Z,1.10
2023-01-13T13:19:32.296Z,1.10
2023-01-13T13:22:19.136Z,2.10
2023-01-13T13:24:48.993Z,0.98
2023-01-13T13:27:20.337Z,1.45
2023-01-13T13:30:02.243Z,2.45
2023-01-13T13:32:53.906Z,1.15
2023-01-13T13:35:20.721Z,0.52
2023-01-13T13:38:22.513Z,0.50
2023-01-13T13:41:08.453Z,2.78
2023-01-13T13:44:01.579Z,0.68
2023-01-13T13:46:47.921Z,0.40
2023-01-13T13:49:21.505Z,0.70
2023-01-13T13:52:22.371Z,0.63
2023-01-13T13:54:52.107Z,0.40
2023-01-13T13:57:39.873Z,1.08
2023-01-13T14:00:18.100Z,0.55
2023-01-13T14:02:56.755Z,0.60
2023-01-13T14:05:25.571Z,0.98
2023-01-13T14:08:15.177Z,1.00
2023-01-13T14:10:43.405Z,0.70
2023-01-13T14:13:30.336Z,0.65
2023-01-13T14:16:04.211Z,0.95
2023-01-13T14:18:32.786Z,0.43
2023-01-13T14:21:00.506Z,0.95
2023-01-13T14:23:29.635Z,0.70
2023-01-13T14:26:01.873Z,0.77
2023-01-13T14:28:32.516Z,0.75
2023-01-13T14:30:59.780Z,0.70
2023-01-13T14:33:46.294Z,0.63
2023-01-13T14:36:17.616Z,2.10
2023-01-13T14:39:03.764Z,0.50
2023-01-13T14:42:00.049Z,0.38
2023-01-13T14:44:35.256Z,7.60
2023-01-13T14:47:04.376Z,3.92
2023-01-13T14:49:38.292Z,1.08
2023-01-13T14:52:22.507Z,2.35
2023-01-13T14:54:58.437Z,1.40
2023-01-13T14:57:27.789Z,0.47
2023-01-13T15:00:13.816Z,0.70
2023-01-13T15:02:53.519Z,0.63
2023-01-13T15:05:22.492Z,0.50
2023-01-13T15:08:14.057Z,0.60
2023-01-13T15:11:01.005Z,0.47
2023-01-13T15:13:41.180Z,1.08
2023-01-13T15:16:21.124Z,0.93
2023-01-13T15:18:48.273Z,0.50
2023-01-13T15:21:15.870Z,0.50
2023-01-13T15:23:43.229Z,0.65
2023-01-13T15:26:23.866Z,0.65
2023-01-13T15:28:51.563Z,0.50
2023-01-13T15:31:18.979Z,0.73
2023-01-13T15:33:45.959Z,0.30
2023-01-13T15:36:29.221Z,0.68
2023-01-13T15:38:56.371Z,0.68
2023-01-13T15:41:41.797Z,1.60
2023-01-13T15:44:29.739Z,1.60
2023-01-13T15:46:56.937Z,0.90
2023-01-13T15:49:27.899Z,0.93
2023-01-13T15:51:54.936Z,1.23
2023-01-13T15:54:24.602Z,0.85
2023-01-13T15:56:51.622Z,0.75
2023-01-13T15:59:21.029Z,1.30
2023-01-13T16:01:48.088Z,0.85
2023-01-13T16:04:15.164Z,0.90
2023-01-13T16:06:42.170Z,0.73
2023-01-13T16:09:12.822Z,0.95
2023-01-13T16:11:39.814Z,1.00
2023-01-13T16:14:06.755Z,0.60
2023-01-13T16:16:33.749Z,1.00
2023-01-13T16:19:00.854Z,0.98
2023-01-13T16:21:27.825Z,0.60
2023-01-13T16:23:54.913Z,0.65
2023-01-13T16:26:23.700Z,1.15
2023-01-13T16:28:51.868Z,1.10
2023-01-13T16:31:30.784Z,0.93
2023-01-13T16:33:58.738Z,1.35
2023-01-13T16:36:25.725Z,0.90
2023-01-13T16:38:53.126Z,1.10
2023-01-13T16:41:20.736Z,0.90
2023-01-13T16:43:48.173Z,0.95
2023-01-13T16:46:22.739Z,1.10
2023-01-13T16:48:49.923Z,1.23
2023-01-13T16:51:16.827Z,0.77
2023-01-13T16:53:43.765Z,1.17
2023-01-13T16:56:35.393Z,1.02
2023-01-13T16:59:14.164Z,3.00
2023-01-13T17:01:42.107Z,1.30
2023-01-13T17:04:14.964Z,1.83
2023-01-13T17:06:55.767Z,1.40
2023-01-13T17:09:25.162Z,1.10
2023-01-13T17:11:52.212Z,1.35
2023-01-13T17:14:21.816Z,1.10
2023-01-13T17:16:52.357Z,1.25
2023-01-13T17:19:20.496Z,1.38
2023-01-13T17:21:47.782Z,2.55
2023-01-13T17:24:14.793Z,1.60
2023-01-13T17:26:44.257Z,1.15
2023-01-13T17:29:16.102Z,1.42
2023-01-13T17:31:43.265Z,1.33
2023-01-13T17:34:10.652Z,1.25
2023-01-13T17:36:37.702Z,1.73
2023-01-13T17:39:04.874Z,1.73
2023-01-13T17:41:31.759Z,1.55
2023-01-13T17:43:58.774Z,1.83
2023-01-13T17:46:25.704Z,1.65
2023-01-13T17:48:53.827Z,1.60
2023-01-13T17:51:22.562Z,1.70
2023-01-13T17:53:49.645Z,1.70
2023-01-13T17:56:17.179Z,2.22
2023-01-13T17:58:45.544Z,2.55
2023-01-13T18:01:20.071Z,2.50
2023-01-13T18:03:47.295Z,2.08
2023-01-13T18:06:18.999Z,3.35
2023-01-13T18:08:46.227Z,2.75
2023-01-13T18:11:14.078Z,2.38
2023-01-13T18:13:43.954Z,2.40
2023-01-13T18:16:11.409Z,2.05
2023-01-13T18:18:39.346Z,2.03
2023-01-13T18:21:25.313Z,2.20
2023-01-13T18:24:11.031Z,2.08
2023-01-13T18:26:56.576Z,2.00
2023-01-13T18:29:23.518Z,2.22
2023-01-13T18:31:50.631Z,1.88
2023-01-13T18:34:17.629Z,2.00
2023-01-13T18:36:44.675Z,1.90
2023-01-13T18:39:12.075Z,1.70
2023-01-13T18:41:57.790Z,1.63
2023-01-13T18:44:24.772Z,1.95
2023-01-13T18:46:51.758Z,1.85
2023-01-13T18:49:18.734Z,2.05
2023-01-13T18:51:45.767Z,2.33
2023-01-13T18:54:12.707Z,2.20
2023-01-13T18:56:39.755Z,2.20
2023-01-13T18:59:06.750Z,1.83
2023-01-13T19:01:33.901Z,1.92
2023-01-13T19:04:03.233Z,2.30
2023-01-13T19:06:33.945Z,2.05
2023-01-13T19:09:01.932Z,1.65
2023-01-13T19:11:30.632Z,2.22
2023-01-13T19:13:57.791Z,1.63
2023-01-13T19:16:24.893Z,1.67
2023-01-13T19:18:51.876Z,2.40
2023-01-13T19:21:18.869Z,3.05
2023-01-13T19:23:46.032Z,2.45
2023-01-13T19:26:13.208Z,1.98
2023-01-13T19:28:40.597Z,1.83
2023-01-13T19:31:09.491Z,1.30
2023-01-13T19:33:38.795Z,1.60
2023-01-13T19:36:06.898Z,1.65
2023-01-13T19:38:33.877Z,1.70
2023-01-13T19:41:02.534Z,1.67
2023-01-13T19:43:48.351Z,1.80
2023-01-13T19:46:15.299Z,1.60
2023-01-13T19:48:43.150Z,1.65
2023-01-13T19:51:10.527Z,1.85
2023-01-13T19:53:37.499Z,2.17
2023-01-13T19:56:04.631Z,2.55
2023-01-13T19:58:31.627Z,2.90
2023-01-13T20:00:58.663Z,3.70
2023-01-13T20:03:26.960Z,4.60
2023-01-13T20:05:54.072Z,4.47
2023-01-13T20:08:22.150Z,4.82
2023-01-13T20:10:49.226Z,5.47
2023-01-13T20:13:16.435Z,6.82
2023-01-13T20:15:44.008Z,7.18
2023-01-13T20:18:11.191Z,7.25
2023-01-13T20:20:38.105Z,6.18
2023-01-13T20:23:05.081Z,5.07
2023-01-13T20:25:32.083Z,5.05
2023-01-13T20:28:01.230Z,2.50
2023-01-13T20:30:28.218Z,1.92
2023-01-13T20:32:55.211Z,2.55
2023-01-13T20:35:22.266Z,2.47
2023-01-13T20:37:49.164Z,1.70
2023-01-13T20:40:16.443Z,1.95
2023-01-13T20:42:45.237Z,2.03
2023-01-13T20:45:21.630Z,1.92
2023-01-13T20:47:48.592Z,1.70
2023-01-13T20:50:15.865Z,1.30
2023-01-13T20:52:42.999Z,1.80
2023-01-13T20:55:10.186Z,1.60
2023-01-13T20:57:37.130Z,1.77
2023-01-13T21:00:04.712Z,1.10
2023-01-13T21:02:31.721Z,1.70
2023-01-13T21:04:58.716Z,1.30
2023-01-13T21:07:25.668Z,1.40
2023-01-13T21:09:52.708Z,1.40
2023-01-13T21:12:45.792Z,1.40
2023-01-13T21:15:20.165Z,1.10
2023-01-13T21:18:06.684Z,1.15
2023-01-13T21:20:34.510Z,1.23
2023-01-13T21:23:01.881Z,1.00
2023-01-13T21:25:29.389Z,1.17
2023-01-13T21:27:59.980Z,0.93
2023-01-13T21:30:26.939Z,1.30
2023-01-13T21:32:53.899Z,1.10
2023-01-13T21:35:20.875Z,0.82
2023-01-13T21:37:47.985Z,1.20
2023-01-13T21:40:15.110Z,0.95
2023-01-13T21:43:00.821Z,1.20
2023-01-13T21:45:46.409Z,1.20
2023-01-13T21:48:13.434Z,1.08
2023-01-13T21:50:40.530Z,0.93
2023-01-13T21:53:08.174Z,0.73
2023-01-13T21:55:36.711Z,1.05
2023-01-13T21:58:10.674Z,0.80
2023-01-13T22:00:38.055Z,0.90
2023-01-13T22:03:06.223Z,0.85
2023-01-13T22:05:33.363Z,0.80
2023-01-13T22:08:00.692Z,1.40
2023-01-13T22:10:29.891Z,2.42
2023-01-13T22:12:58.525Z,3.38
2023-01-13T22:15:27.127Z,2.15
2023-01-13T22:17:54.599Z,2.15
2023-01-13T22:20:21.636Z,0.88
2023-01-13T22:22:48.895Z,1.20
2023-01-13T22:25:16.335Z,0.63
2023-01-13T22:27:44.807Z,1.33
2023-01-13T22:30:18.185Z,0.70
2023-01-13T22:32:45.728Z,1.85
2023-01-13T22:35:12.995Z,1.30
2023-01-13T22:37:40.165Z,0.82
2023-01-13T22:40:08.263Z,0.80
2023-01-13T22:42:40.961Z,1.88
2023-01-13T22:45:10.176Z,0.93
2023-01-13T22:47:37.175Z,0.85
2023-01-13T22:50:05.162Z,1.92
2023-01-13T22:52:33.557Z,0.90
2023-01-13T22:55:00.991Z,0.77
2023-01-13T22:57:36.054Z,1.48
2023-01-13T23:00:10.447Z,0.80
2023-01-13T23:02:38.397Z,0.98
2023-01-13T23:05:05.693Z,0.70
2023-01-13T23:07:32.636Z,0.90
2023-01-13T23:10:00.025Z,0.90
2023-01-13T23:12:26.929Z,0.73
2023-01-13T23:14:54.622Z,0.90
2023-01-13T23:17:21.555Z,0.75
2023-01-13T23:19:48.498Z,0.90
2023-01-13T23:22:15.658Z,0.88
2023-01-13T23:24:42.650Z,1.13
2023-01-13T23:27:09.555Z,0.95
2023-01-13T23:29:36.757Z,0.60
2023-01-13T23:32:03.831Z,0.98
2023-01-13T23:34:30.776Z,1.05
2023-01-13T23:36:57.781Z,1.33
2023-01-13T23:39:24.790Z,1.00
2023-01-13T23:41:51.773Z,0.65
2023-01-13T23:44:18.716Z,0.95
2023-01-13T23:46:45.696Z,0.75
2023-01-13T23:49:12.659Z,0.70
2023-01-13T23:51:39.856Z,0.88
2023-01-13T23:54:06.788Z,0.90
2023-01-13T23:56:35.071Z,0.68
2023-01-13T23:59:01.996Z,0.88
